sensor_id;sensor_type;location;lat;lon;timestamp;pressure;altitude;pressure_sealevel;temperature;humidity
72802;BME280;61891;55.818;37.084;2023-05-25T00:00:19;99580.03;;;16.41;67.33
72802;BME280;61891;55.818;37.084;2023-05-25T00:02:45;99586.41;;;16.40;67.62
72802;BME280;61891;55.818;37.084;2023-05-25T00:05:11;99585.78;;;16.38;67.58
72802;BME280;61891;55.818;37.084;2023-05-25T00:07:38;99583.50;;;16.35;67.24
72802;BME280;61891;55.818;37.084;2023-05-25T00:10:05;99483.44;;;15.75;67.23
72802;BME280;61891;55.818;37.084;2023-05-25T00:12:32;99579.56;;;16.31;67.39
72802;BME280;61891;55.818;37.084;2023-05-25T00:14:58;99564.75;;;16.28;67.49
72802;BME280;61891;55.818;37.084;2023-05-25T00:17:23;99565.75;;;16.21;67.37
72802;BME280;61891;55.818;37.084;2023-05-25T00:19:49;99575.41;;;16.22;67.13
72802;BME280;61891;55.818;37.084;2023-05-25T00:22:15;99569.25;;;16.21;67.11
72802;BME280;61891;55.818;37.084;2023-05-25T00:24:40;99563.66;;;16.16;67.28
72802;BME280;61891;55.818;37.084;2023-05-25T00:27:06;99555.16;;;16.06;67.56
72802;BME280;61891;55.818;37.084;2023-05-25T00:29:33;99563.84;;;16.15;67.82
72802;BME280;61891;55.818;37.084;2023-05-25T00:31:59;99554.38;;;16.12;67.98
72802;BME280;61891;55.818;37.084;2023-05-25T00:34:25;99558.28;;;16.09;67.78
72802;BME280;61891;55.818;37.084;2023-05-25T00:36:52;99558.03;;;16.04;68.01
72802;BME280;61891;55.818;37.084;2023-05-25T00:39:21;99553.91;;;16.02;68.20
72802;BME280;61891;55.818;37.084;2023-05-25T00:41:48;99564.19;;;15.98;68.11
72802;BME280;61891;55.818;37.084;2023-05-25T00:44:14;99527.41;;;15.72;68.29
72802;BME280;61891;55.818;37.084;2023-05-25T00:46:48;99566.63;;;15.93;68.13
72802;BME280;61891;55.818;37.084;2023-05-25T00:49:17;99561.47;;;15.92;68.05
72802;BME280;61891;55.818;37.084;2023-05-25T00:51:43;99558.75;;;15.85;67.90
72802;BME280;61891;55.818;37.084;2023-05-25T00:54:14;99555.44;;;15.83;67.85
72802;BME280;61891;55.818;37.084;2023-05-25T00:56:45;99563.84;;;15.80;68.19
72802;BME280;61891;55.818;37.084;2023-05-25T00:59:15;99528.78;;;15.62;68.13
72802;BME280;61891;55.818;37.084;2023-05-25T01:01:43;99538.31;;;15.71;67.93
72802;BME280;61891;55.818;37.084;2023-05-25T01:04:12;99552.44;;;15.65;68.22
72802;BME280;61891;55.818;37.084;2023-05-25T01:06:43;99553.84;;;15.61;68.49
72802;BME280;61891;55.818;37.084;2023-05-25T01:09:15;99547.19;;;15.57;68.70
72802;BME280;61891;55.818;37.084;2023-05-25T01:11:41;99511.47;;;15.36;68.62
72802;BME280;61891;55.818;37.084;2023-05-25T01:14:09;99525.75;;;15.50;68.46
72802;BME280;61891;55.818;37.084;2023-05-25T01:16:35;99516.25;;;15.41;68.89
72802;BME280;61891;55.818;37.084;2023-05-25T01:19:02;99484.22;;;15.20;68.57
72802;BME280;61891;55.818;37.084;2023-05-25T01:22:00;99522.03;;;15.44;68.94
72802;BME280;61891;55.818;37.084;2023-05-25T01:24:39;99524.88;;;15.43;68.98
72802;BME280;61891;55.818;37.084;2023-05-25T01:27:35;99511.97;;;15.46;69.09
72802;BME280;61891;55.818;37.084;2023-05-25T01:30:06;99485.53;;;15.30;69.00
72802;BME280;61891;55.818;37.084;2023-05-25T01:32:33;99509.53;;;15.52;68.87
72802;BME280;61891;55.818;37.084;2023-05-25T01:35:03;99509.53;;;15.52;69.31
72802;BME280;61891;55.818;37.084;2023-05-25T01:37:29;99508.31;;;15.54;69.27
72802;BME280;61891;55.818;37.084;2023-05-25T01:39:56;99437.13;;;15.12;69.38
72802;BME280;61891;55.818;37.084;2023-05-25T01:42:22;99503.19;;;15.53;69.28
72802;BME280;61891;55.818;37.084;2023-05-25T01:44:48;99483.13;;;15.35;69.25
72802;BME280;61891;55.818;37.084;2023-05-25T01:52:38;99496.31;;;15.43;69.63
72802;BME280;61891;55.818;37.084;2023-05-25T01:55:14;99508.28;;;15.47;69.75
72802;BME280;61891;55.818;37.084;2023-05-25T01:57:42;99459.56;;;15.18;69.54
72802;BME280;61891;55.818;37.084;2023-05-25T02:00:11;99469.09;;;15.27;69.70
72802;BME280;61891;55.818;37.084;2023-05-25T02:02:44;99462.72;;;15.28;69.65
72802;BME280;61891;55.818;37.084;2023-05-25T02:05:11;99507.22;;;15.63;69.40
72802;BME280;61891;55.818;37.084;2023-05-25T02:07:38;99513.84;;;15.74;69.32
72802;BME280;61891;55.818;37.084;2023-05-25T02:10:04;99485.38;;;15.60;69.12
72802;BME280;61891;55.818;37.084;2023-05-25T02:12:30;99509.53;;;15.73;68.97
72802;BME280;61891;55.818;37.084;2023-05-25T02:14:56;99512.63;;;15.76;69.18
72802;BME280;61891;55.818;37.084;2023-05-25T02:17:22;99504.00;;;15.74;69.18
72802;BME280;61891;55.818;37.084;2023-05-25T02:19:52;99512.03;;;15.81;69.41
72802;BME280;61891;55.818;37.084;2023-05-25T02:22:19;99502.78;;;15.77;69.33
72802;BME280;61891;55.818;37.084;2023-05-25T02:24:45;99518.06;;;15.90;69.55
72802;BME280;61891;55.818;37.084;2023-05-25T02:27:11;99487.13;;;15.74;69.25
72802;BME280;61891;55.818;37.084;2023-05-25T02:29:37;99521.41;;;15.98;69.46
72802;BME280;61891;55.818;37.084;2023-05-25T02:32:03;99506.78;;;15.94;69.49
72802;BME280;61891;55.818;37.084;2023-05-25T02:34:29;99490.47;;;15.83;69.33
72802;BME280;61891;55.818;37.084;2023-05-25T02:36:55;99501.81;;;15.91;69.46
72802;BME280;61891;55.818;37.084;2023-05-25T02:39:21;99517.06;;;15.97;69.17
72802;BME280;61891;55.818;37.084;2023-05-25T02:41:47;99526.59;;;16.06;69.29
72802;BME280;61891;55.818;37.084;2023-05-25T02:44:13;99540.22;;;16.18;69.21
72802;BME280;61891;55.818;37.084;2023-05-25T02:46:38;99539.63;;;16.23;69.01
72802;BME280;61891;55.818;37.084;2023-05-25T02:49:05;99542.31;;;16.29;69.00
72802;BME280;61891;55.818;37.084;2023-05-25T02:51:30;99546.22;;;16.27;69.05
72802;BME280;61891;55.818;37.084;2023-05-25T02:53:58;99556.56;;;16.36;68.91
72802;BME280;61891;55.818;37.084;2023-05-25T02:56:24;99560.47;;;16.40;68.91
72802;BME280;61891;55.818;37.084;2023-05-25T02:58:52;99564.41;;;16.44;68.72
72802;BME280;61891;55.818;37.084;2023-05-25T03:01:32;99562.16;;;16.48;68.75
72802;BME280;61891;55.818;37.084;2023-05-25T03:03:59;99564.59;;;16.43;68.75
72802;BME280;61891;55.818;37.084;2023-05-25T03:06:26;99562.34;;;16.47;68.99
72802;BME280;61891;55.818;37.084;2023-05-25T03:08:56;99578.47;;;16.60;68.61
72802;BME280;61891;55.818;37.084;2023-05-25T03:11:22;99579.53;;;16.65;69.02
72802;BME280;61891;55.818;37.084;2023-05-25T03:13:50;99556.22;;;16.59;68.50
72802;BME280;61891;55.818;37.084;2023-05-25T03:16:17;99568.22;;;16.70;68.46
72802;BME280;61891;55.818;37.084;2023-05-25T03:18:43;99586.41;;;16.88;68.24
72802;BME280;61891;55.818;37.084;2023-05-25T03:21:09;99564.97;;;16.81;68.06
72802;BME280;61891;55.818;37.084;2023-05-25T03:23:35;99566.03;;;16.87;68.21
72802;BME280;61891;55.818;37.084;2023-05-25T03:26:04;99586.25;;;17.02;67.71
72802;BME280;61891;55.818;37.084;2023-05-25T03:28:31;99595.09;;;17.03;67.71
72802;BME280;61891;55.818;37.084;2023-05-25T03:30:57;99592.44;;;17.10;67.94
72802;BME280;61891;55.818;37.084;2023-05-25T03:33:22;99596.78;;;17.17;67.97
72802;BME280;61891;55.818;37.084;2023-05-25T03:35:48;99593.47;;;17.22;68.32
72802;BME280;61891;55.818;37.084;2023-05-25T03:38:15;99580.50;;;17.19;67.77
72802;BME280;61891;55.818;37.084;2023-05-25T03:40:41;99574.94;;;17.20;67.88
72802;BME280;61891;55.818;37.084;2023-05-25T03:43:07;99594.31;;;17.35;67.70
72802;BME280;61891;55.818;37.084;2023-05-25T03:45:33;99578.25;;;17.35;67.95
72802;BME280;61891;55.818;37.084;2023-05-25T03:47:58;99581.34;;;17.39;67.63
72802;BME280;61891;55.818;37.084;2023-05-25T03:50:25;99584.22;;;17.51;67.14
72802;BME280;61891;55.818;37.084;2023-05-25T03:52:50;99588.75;;;17.57;67.73
72802;BME280;61891;55.818;37.084;2023-05-25T03:55:16;99586.09;;;17.57;67.46
72802;BME280;61891;55.818;37.084;2023-05-25T03:57:43;99574.34;;;17.58;67.66
72802;BME280;61891;55.818;37.084;2023-05-25T04:00:10;99572.06;;;17.61;67.55
72802;BME280;61891;55.818;37.084;2023-05-25T04:02:39;99566.69;;;17.61;67.41
72802;BME280;61891;55.818;37.084;2023-05-25T04:05:05;99578.47;;;17.67;67.05
72802;BME280;61891;55.818;37.084;2023-05-25T04:07:31;99576.63;;;17.67;67.19
72802;BME280;61891;55.818;37.084;2023-05-25T04:09:57;99579.31;;;17.74;67.24
72802;BME280;61891;55.818;37.084;2023-05-25T04:12:24;99568.34;;;17.82;67.13
72802;BME280;61891;55.818;37.084;2023-05-25T04:14:50;99567.09;;;17.91;67.14
72802;BME280;61891;55.818;37.084;2023-05-25T04:17:17;99574.94;;;17.99;67.35
72802;BME280;61891;55.818;37.084;2023-05-25T04:19:43;99573.88;;;18.14;67.10
72802;BME280;61891;55.818;37.084;2023-05-25T04:22:09;99544.56;;;18.12;66.92
72802;BME280;61891;55.818;37.084;2023-05-25T04:24:35;99551.94;;;18.30;67.02
72802;BME280;61891;55.818;37.084;2023-05-25T04:27:01;99562.38;;;18.51;66.63
72802;BME280;61891;55.818;37.084;2023-05-25T04:29:27;99553.25;;;18.65;66.45
72802;BME280;61891;55.818;37.084;2023-05-25T04:32:15;99559.59;;;18.78;66.48
72802;BME280;61891;55.818;37.084;2023-05-25T04:35:02;99559.72;;;18.89;65.63
72802;BME280;61891;55.818;37.084;2023-05-25T04:37:37;99564.03;;;18.97;66.11
72802;BME280;61891;55.818;37.084;2023-05-25T04:40:06;99543.75;;;19.01;66.07
72802;BME280;61891;55.818;37.084;2023-05-25T04:42:35;99562.81;;;19.24;65.71
72802;BME280;61891;55.818;37.084;2023-05-25T04:45:05;99517.66;;;19.08;65.45
72802;BME280;61891;55.818;37.084;2023-05-25T04:47:31;99560.31;;;19.54;65.73
72802;BME280;61891;55.818;37.084;2023-05-25T04:49:59;99553.84;;;19.62;65.54
72802;BME280;61891;55.818;37.084;2023-05-25T04:52:25;99558.44;;;19.80;64.70
72802;BME280;61891;55.818;37.084;2023-05-25T04:54:52;99544.25;;;19.91;64.98
72802;BME280;61891;55.818;37.084;2023-05-25T04:57:18;99556.06;;;20.08;64.70
72802;BME280;61891;55.818;37.084;2023-05-25T04:59:45;99549.50;;;20.22;64.56
72802;BME280;61891;55.818;37.084;2023-05-25T05:02:10;99560.94;;;20.36;63.93
72802;BME280;61891;55.818;37.084;2023-05-25T05:04:36;99524.13;;;20.30;63.90
72802;BME280;61891;55.818;37.084;2023-05-25T05:07:04;99557.72;;;20.64;63.65
72802;BME280;61891;55.818;37.084;2023-05-25T05:09:31;99547.56;;;20.78;63.17
72802;BME280;61891;55.818;37.084;2023-05-25T05:11:59;99554.81;;;20.96;62.75
72802;BME280;61891;55.818;37.084;2023-05-25T05:14:26;99568.22;;;21.14;62.17
72802;BME280;61891;55.818;37.084;2023-05-25T05:16:52;99544.66;;;21.09;61.91
72802;BME280;61891;55.818;37.084;2023-05-25T05:19:18;99544.25;;;21.24;61.80
72802;BME280;61891;55.818;37.084;2023-05-25T05:21:43;99564.56;;;21.50;61.23
72802;BME280;61891;55.818;37.084;2023-05-25T05:24:10;99542.19;;;21.49;61.55
72802;BME280;61891;55.818;37.084;2023-05-25T05:26:35;99548.50;;;21.55;60.78
72802;BME280;61891;55.818;37.084;2023-05-25T05:29:04;99551.44;;;21.65;61.14
72802;BME280;61891;55.818;37.084;2023-05-25T05:31:30;99547.34;;;21.86;60.43
72802;BME280;61891;55.818;37.084;2023-05-25T05:33:56;99549.56;;;22.12;60.21
72802;BME280;61891;55.818;37.084;2023-05-25T05:36:22;99524.94;;;22.09;60.20
72802;BME280;61891;55.818;37.084;2023-05-25T05:38:48;99543.06;;;22.37;59.99
72802;BME280;61891;55.818;37.084;2023-05-25T05:41:14;99542.78;;;22.50;59.15
72802;BME280;61891;55.818;37.084;2023-05-25T05:43:46;99538.19;;;22.50;59.42
72802;BME280;61891;55.818;37.084;2023-05-25T05:46:12;99535.13;;;22.59;58.76
72802;BME280;61891;55.818;37.084;2023-05-25T05:48:39;99535.47;;;22.62;58.79
72802;BME280;61891;55.818;37.084;2023-05-25T05:51:04;99540.63;;;22.64;58.32
72802;BME280;61891;55.818;37.084;2023-05-25T05:53:31;99527.00;;;22.59;58.56
72802;BME280;61891;55.818;37.084;2023-05-25T05:55:57;99535.03;;;22.54;58.22
72802;BME280;61891;55.818;37.084;2023-05-25T05:58:25;99506.81;;;22.21;58.67
72802;BME280;61891;55.818;37.084;2023-05-25T06:00:55;99520.31;;;22.21;58.78
72802;BME280;61891;55.818;37.084;2023-05-25T06:03:21;99546.72;;;22.31;59.07
72802;BME280;61891;55.818;37.084;2023-05-25T06:05:47;99552.25;;;22.24;59.01
72802;BME280;61891;55.818;37.084;2023-05-25T06:08:13;99552.72;;;22.21;59.05
72802;BME280;61891;55.818;37.084;2023-05-25T06:10:39;99529.59;;;22.02;59.07
72802;BME280;61891;55.818;37.084;2023-05-25T06:13:05;99525.16;;;21.84;59.01
72802;BME280;61891;55.818;37.084;2023-05-25T06:15:32;99560.72;;;21.93;59.29
72802;BME280;61891;55.818;37.084;2023-05-25T06:18:00;99540.06;;;21.75;59.37
72802;BME280;61891;55.818;37.084;2023-05-25T06:20:26;99562.94;;;21.84;58.97
72802;BME280;61891;55.818;37.084;2023-05-25T06:22:51;99549.94;;;21.69;59.68
72802;BME280;61891;55.818;37.084;2023-05-25T06:25:18;99564.59;;;21.73;59.69
72802;BME280;61891;55.818;37.084;2023-05-25T06:27:45;99526.22;;;21.48;59.50
72802;BME280;61891;55.818;37.084;2023-05-25T06:30:12;99512.16;;;21.46;59.30
72802;BME280;61891;55.818;37.084;2023-05-25T06:32:37;99520.38;;;21.51;59.38
72802;BME280;61891;55.818;37.084;2023-05-25T06:35:04;99554.75;;;21.79;59.76
72802;BME280;61891;55.818;37.084;2023-05-25T06:37:30;99558.97;;;21.86;59.31
72802;BME280;61891;55.818;37.084;2023-05-25T06:40:03;99565.88;;;21.94;59.58
72802;BME280;61891;55.818;37.084;2023-05-25T06:42:30;99542.41;;;21.95;59.45
72802;BME280;61891;55.818;37.084;2023-05-25T06:44:56;99560.47;;;22.29;58.72
72802;BME280;61891;55.818;37.084;2023-05-25T06:47:24;99553.13;;;22.53;58.54
72802;BME280;61891;55.818;37.084;2023-05-25T06:49:49;99548.34;;;22.72;58.19
72802;BME280;61891;55.818;37.084;2023-05-25T06:52:15;99547.59;;;22.88;58.23
72802;BME280;61891;55.818;37.084;2023-05-25T06:54:40;99563.28;;;23.03;57.67
72802;BME280;61891;55.818;37.084;2023-05-25T06:57:06;99557.78;;;22.98;57.58
72802;BME280;61891;55.818;37.084;2023-05-25T06:59:32;99563.63;;;23.06;57.38
72802;BME280;61891;55.818;37.084;2023-05-25T07:01:58;99558.69;;;23.03;57.50
72802;BME280;61891;55.818;37.084;2023-05-25T07:04:24;99550.88;;;22.90;57.63
72802;BME280;61891;55.818;37.084;2023-05-25T07:06:50;99557.59;;;22.88;57.19
72802;BME280;61891;55.818;37.084;2023-05-25T07:09:16;99562.66;;;22.84;57.60
72802;BME280;61891;55.818;37.084;2023-05-25T07:11:42;99562.31;;;22.80;57.17
72802;BME280;61891;55.818;37.084;2023-05-25T07:14:08;99558.19;;;22.78;57.41
72802;BME280;61891;55.818;37.084;2023-05-25T07:16:33;99554.66;;;22.89;57.12
72802;BME280;61891;55.818;37.084;2023-05-25T07:18:59;99540.88;;;22.91;57.32
72802;BME280;61891;55.818;37.084;2023-05-25T07:21:24;99550.75;;;23.13;56.66
72802;BME280;61891;55.818;37.084;2023-05-25T07:23:50;99560.44;;;23.26;56.97
72802;BME280;61891;55.818;37.084;2023-05-25T07:26:15;99550.53;;;23.32;56.36
72802;BME280;61891;55.818;37.084;2023-05-25T07:28:41;99546.25;;;23.36;56.77
72802;BME280;61891;55.818;37.084;2023-05-25T07:33:33;99542.09;;;23.45;55.86
72802;BME280;61891;55.818;37.084;2023-05-25T07:35:58;99541.44;;;23.38;56.51
72802;BME280;61891;55.818;37.084;2023-05-25T07:38:24;99541.25;;;23.28;56.13
72802;BME280;61891;55.818;37.084;2023-05-25T07:40:49;99529.22;;;23.19;56.36
72802;BME280;61891;55.818;37.084;2023-05-25T07:43:17;99533.47;;;23.31;56.19
72802;BME280;61891;55.818;37.084;2023-05-25T07:45:42;99542.56;;;23.42;56.02
72802;BME280;61891;55.818;37.084;2023-05-25T07:48:08;99521.75;;;23.42;56.11
72802;BME280;61891;55.818;37.084;2023-05-25T07:50:34;99529.81;;;23.54;56.19
72802;BME280;61891;55.818;37.084;2023-05-25T07:52:59;99531.28;;;23.62;55.86
72802;BME280;61891;55.818;37.084;2023-05-25T07:55:26;99494.38;;;23.39;55.58
72802;BME280;61891;55.818;37.084;2023-05-25T07:57:52;99535.53;;;23.74;56.01
72802;BME280;61891;55.818;37.084;2023-05-25T08:00:17;99533.78;;;23.85;54.84
72802;BME280;61891;55.818;37.084;2023-05-25T08:02:43;99533.53;;;23.87;55.00
72802;BME280;61891;55.818;37.084;2023-05-25T08:05:10;99544.84;;;24.00;54.83
72802;BME280;61891;55.818;37.084;2023-05-25T08:07:37;99547.28;;;24.02;54.89
72802;BME280;61891;55.818;37.084;2023-05-25T08:10:03;99537.97;;;23.93;54.73
72802;BME280;61891;55.818;37.084;2023-05-25T08:12:31;99545.88;;;23.77;55.07
72802;BME280;61891;55.818;37.084;2023-05-25T08:14:57;99522.28;;;23.56;55.34
72802;BME280;61891;55.818;37.084;2023-05-25T08:17:22;99536.69;;;23.62;55.35
72802;BME280;61891;55.818;37.084;2023-05-25T08:19:48;99535.94;;;23.66;55.36
72802;BME280;61891;55.818;37.084;2023-05-25T08:22:13;99538.25;;;23.74;54.83
72802;BME280;61891;55.818;37.084;2023-05-25T08:24:39;99533.72;;;23.80;55.08
72802;BME280;61891;55.818;37.084;2023-05-25T08:27:05;99520.19;;;23.80;55.00
72802;BME280;61891;55.818;37.084;2023-05-25T08:29:31;99544.00;;;24.00;54.11
72802;BME280;61891;55.818;37.084;2023-05-25T08:31:56;99535.38;;;24.03;54.58
72802;BME280;61891;55.818;37.084;2023-05-25T08:34:22;99518.94;;;23.88;54.73
72802;BME280;61891;55.818;37.084;2023-05-25T08:36:48;99544.34;;;24.03;54.17
72802;BME280;61891;55.818;37.084;2023-05-25T08:39:13;99498.53;;;23.80;54.48
72802;BME280;61891;55.818;37.084;2023-05-25T08:41:42;99491.97;;;23.76;54.48
72802;BME280;61891;55.818;37.084;2023-05-25T08:44:09;99532.00;;;24.13;53.89
72802;BME280;61891;55.818;37.084;2023-05-25T08:46:35;99541.81;;;24.19;54.33
72802;BME280;61891;55.818;37.084;2023-05-25T08:49:08;99461.16;;;23.60;53.86
72802;BME280;61891;55.818;37.084;2023-05-25T08:51:36;99523.03;;;23.90;54.13
72802;BME280;61891;55.818;37.084;2023-05-25T08:54:08;99545.59;;;23.96;53.82
72802;BME280;61891;55.818;37.084;2023-05-25T08:56:36;99546.09;;;23.93;53.37
72802;BME280;61891;55.818;37.084;2023-05-25T08:59:11;99499.94;;;23.66;53.90
72802;BME280;61891;55.818;37.084;2023-05-25T09:01:43;99538.38;;;23.85;54.30
72802;BME280;61891;55.818;37.084;2023-05-25T09:04:11;99511.50;;;23.61;54.42
72802;BME280;61891;55.818;37.084;2023-05-25T09:06:38;99540.28;;;23.67;54.55
72802;BME280;61891;55.818;37.084;2023-05-25T09:09:04;99538.59;;;23.61;54.23
72802;BME280;61891;55.818;37.084;2023-05-25T09:11:31;99528.56;;;23.45;54.43
72802;BME280;61891;55.818;37.084;2023-05-25T09:13:56;99540.03;;;23.52;54.51
72802;BME280;61891;55.818;37.084;2023-05-25T09:16:23;99517.56;;;23.35;54.60
72802;BME280;61891;55.818;37.084;2023-05-25T09:18:50;99536.34;;;23.41;54.54
72802;BME280;61891;55.818;37.084;2023-05-25T09:21:15;99530.19;;;23.46;54.22
72802;BME280;61891;55.818;37.084;2023-05-25T09:23:41;99537.25;;;23.47;54.61
72802;BME280;61891;55.818;37.084;2023-05-25T09:26:07;99535.13;;;23.49;54.56
72802;BME280;61891;55.818;37.084;2023-05-25T09:28:33;99534.72;;;23.57;54.25
72802;BME280;61891;55.818;37.084;2023-05-25T09:30:59;99529.41;;;23.62;54.31
72802;BME280;61891;55.818;37.084;2023-05-25T09:33:25;99524.63;;;23.69;54.19
72802;BME280;61891;55.818;37.084;2023-05-25T09:35:51;99537.31;;;23.86;53.67
72802;BME280;61891;55.818;37.084;2023-05-25T09:38:17;99512.94;;;23.86;53.28
72802;BME280;61891;55.818;37.084;2023-05-25T09:40:43;99530.72;;;23.98;52.59
72802;BME280;61891;55.818;37.084;2023-05-25T09:43:10;99531.28;;;24.00;53.12
72802;BME280;61891;55.818;37.084;2023-05-25T09:45:37;99520.81;;;23.87;53.48
72802;BME280;61891;55.818;37.084;2023-05-25T09:48:03;99524.84;;;23.85;52.91
72802;BME280;61891;55.818;37.084;2023-05-25T09:50:30;99514.88;;;23.68;53.69
72802;BME280;61891;55.818;37.084;2023-05-25T09:52:58;99522.50;;;23.71;53.56
72802;BME280;61891;55.818;37.084;2023-05-25T09:55:26;99517.50;;;23.63;53.96
72802;BME280;61891;55.818;37.084;2023-05-25T09:57:53;99520.22;;;23.63;53.72
72802;BME280;61891;55.818;37.084;2023-05-25T10:00:21;99523.00;;;23.68;54.05
72802;BME280;61891;55.818;37.084;2023-05-25T10:02:47;99521.28;;;23.62;53.96
72802;BME280;61891;55.818;37.084;2023-05-25T10:05:12;99523.97;;;23.62;53.33
72802;BME280;61891;55.818;37.084;2023-05-25T10:07:38;99518.50;;;23.57;53.97
72802;BME280;61891;55.818;37.084;2023-05-25T10:10:06;99504.53;;;23.48;54.07
72802;BME280;61891;55.818;37.084;2023-05-25T10:12:34;99521.69;;;23.54;54.23
72802;BME280;61891;55.818;37.084;2023-05-25T10:15:02;99520.03;;;23.53;54.30
72802;BME280;61891;55.818;37.084;2023-05-25T10:17:31;99487.16;;;23.28;54.04
72802;BME280;61891;55.818;37.084;2023-05-25T10:20:00;99521.25;;;23.45;54.41
72802;BME280;61891;55.818;37.084;2023-05-25T10:22:59;99526.75;;;23.51;54.01
72802;BME280;61891;55.818;37.084;2023-05-25T10:25:26;99519.44;;;23.51;54.23
72802;BME280;61891;55.818;37.084;2023-05-25T10:28:12;99502.91;;;23.31;53.88
72802;BME280;61891;55.818;37.084;2023-05-25T10:30:40;99525.13;;;23.33;54.32
72802;BME280;61891;55.818;37.084;2023-05-25T10:33:06;99523.22;;;23.17;54.30
72802;BME280;61891;55.818;37.084;2023-05-25T10:35:31;99523.28;;;23.05;54.68
72802;BME280;61891;55.818;37.084;2023-05-25T10:37:59;99531.97;;;22.90;54.53
72802;BME280;61891;55.818;37.084;2023-05-25T10:40:26;99518.25;;;22.80;54.48
72802;BME280;61891;55.818;37.084;2023-05-25T10:42:52;99525.81;;;22.95;54.38
72802;BME280;61891;55.818;37.084;2023-05-25T10:45:18;99518.28;;;22.97;55.05
72802;BME280;61891;55.818;37.084;2023-05-25T10:47:44;99512.25;;;23.06;54.52
72802;BME280;61891;55.818;37.084;2023-05-25T10:50:25;99523.81;;;23.35;54.07
72802;BME280;61891;55.818;37.084;2023-05-25T10:52:59;99517.91;;;23.55;53.51
72802;BME280;61891;55.818;37.084;2023-05-25T10:55:26;99516.50;;;23.69;53.84
72802;BME280;61891;55.818;37.084;2023-05-25T10:58:13;99507.63;;;23.74;53.34
72802;BME280;61891;55.818;37.084;2023-05-25T11:00:40;99503.63;;;23.98;53.37
72802;BME280;61891;55.818;37.084;2023-05-25T11:03:06;99482.97;;;23.92;53.17
72802;BME280;61891;55.818;37.084;2023-05-25T11:05:37;99479.72;;;23.90;52.73
72802;BME280;61891;55.818;37.084;2023-05-25T11:08:05;99497.22;;;24.04;52.65
72802;BME280;61891;55.818;37.084;2023-05-25T11:13:38;99494.09;;;24.34;51.61
72802;BME280;61891;55.818;37.084;2023-05-25T11:16:19;99490.66;;;24.66;51.53
72802;BME280;61891;55.818;37.084;2023-05-25T11:19:13;99488.03;;;24.76;51.62
72802;BME280;61891;55.818;37.084;2023-05-25T11:21:40;99470.84;;;24.65;51.22
72802;BME280;61891;55.818;37.084;2023-05-25T11:24:12;99489.88;;;24.70;51.58
72802;BME280;61891;55.818;37.084;2023-05-25T11:26:56;99433.72;;;24.17;51.53
72802;BME280;61891;55.818;37.084;2023-05-25T11:29:23;99466.44;;;24.32;51.71
72802;BME280;61891;55.818;37.084;2023-05-25T11:31:53;99479.94;;;24.27;52.05
72802;BME280;61891;55.818;37.084;2023-05-25T11:34:23;99474.91;;;24.19;51.80
72802;BME280;61891;55.818;37.084;2023-05-25T11:36:57;99479.59;;;24.02;51.46
72802;BME280;61891;55.818;37.084;2023-05-25T11:39:27;99469.19;;;23.94;51.93
72802;BME280;61891;55.818;37.084;2023-05-25T11:41:55;99426.31;;;23.64;51.53
72802;BME280;61891;55.818;37.084;2023-05-25T11:44:28;99454.06;;;23.76;51.72
72802;BME280;61891;55.818;37.084;2023-05-25T11:46:55;99416.72;;;23.56;51.77
72802;BME280;61891;55.818;37.084;2023-05-25T11:49:22;99473.59;;;24.00;51.92
72802;BME280;61891;55.818;37.084;2023-05-25T11:51:49;99450.69;;;23.86;51.81
72802;BME280;61891;55.818;37.084;2023-05-25T11:54:24;99433.94;;;23.89;50.89
72802;BME280;61891;55.818;37.084;2023-05-25T11:56:50;99469.44;;;24.14;51.44
72802;BME280;61891;55.818;37.084;2023-05-25T11:59:16;99471.09;;;24.15;50.75
72802;BME280;61891;55.818;37.084;2023-05-25T12:01:43;99441.34;;;23.98;51.32
72802;BME280;61891;55.818;37.084;2023-05-25T12:04:08;99469.44;;;24.14;51.01
72802;BME280;61891;55.818;37.084;2023-05-25T12:06:34;99470.78;;;24.11;51.05
72802;BME280;61891;55.818;37.084;2023-05-25T12:09:03;99460.94;;;24.05;51.61
72802;BME280;61891;55.818;37.084;2023-05-25T12:11:35;99448.34;;;23.94;51.25
72802;BME280;61891;55.818;37.084;2023-05-25T12:14:05;99420.78;;;23.75;51.17
72802;BME280;61891;55.818;37.084;2023-05-25T12:16:32;99463.91;;;24.04;51.46
72802;BME280;61891;55.818;37.084;2023-05-25T12:18:59;99461.06;;;24.16;51.34
72802;BME280;61891;55.818;37.084;2023-05-25T12:21:26;99459.06;;;24.28;50.85
72802;BME280;61891;55.818;37.084;2023-05-25T12:23:53;99458.06;;;24.34;50.58
72802;BME280;61891;55.818;37.084;2023-05-25T12:26:21;99460.81;;;24.39;50.30
72802;BME280;61891;55.818;37.084;2023-05-25T12:29:01;99458.97;;;24.45;50.25
72802;BME280;61891;55.818;37.084;2023-05-25T12:31:29;99376.94;;;24.00;50.17
72802;BME280;61891;55.818;37.084;2023-05-25T12:34:08;99463.13;;;24.52;50.33
72802;BME280;61891;55.818;37.084;2023-05-25T12:36:40;99455.88;;;24.58;49.84
72802;BME280;61891;55.818;37.084;2023-05-25T12:39:07;99459.97;;;24.92;49.96
72802;BME280;61891;55.818;37.084;2023-05-25T12:41:49;99452.75;;;25.35;49.28
72802;BME280;61891;55.818;37.084;2023-05-25T12:44:36;99445.97;;;25.80;48.50
72802;BME280;61891;55.818;37.084;2023-05-25T12:47:17;99446.16;;;26.20;47.90
72802;BME280;61891;55.818;37.084;2023-05-25T12:50:10;99428.03;;;27.68;46.13
72802;BME280;61891;55.818;37.084;2023-05-25T12:52:38;99375.41;;;30.57;43.80
72802;BME280;61891;55.818;37.084;2023-05-25T12:58:00;99428.50;;;30.19;41.22
72802;BME280;61891;55.818;37.084;2023-05-25T13:00:30;99428.97;;;30.63;41.65
72802;BME280;61891;55.818;37.084;2023-05-25T13:02:56;99435.47;;;30.67;41.41
72802;BME280;61891;55.818;37.084;2023-05-25T13:05:24;99432.25;;;30.04;41.70
72802;BME280;61891;55.818;37.084;2023-05-25T13:07:52;99416.44;;;29.24;41.93